KEUL

Caldwell Executive Airport

Airport
ICAO code
KEUL
Summary
ICAO Region
NAM
ICAO Territory
Location

Caldwell, Idaho

Serving
Caldwell
Elevation
2432 ft
Coordinates
43° 38' 28" N , 116° 38' 6" W
KCC
Airport CFIT
Altimeter Temperature Error Correction
Metar
Observation
KEUL 290156Z AUTO 26003KT 10SM FEW100 08/M02 A2974 RMK AO2 SLP077 T00781017
Station
Caldwell, Caldwell Industrial Airport
Date/Time
2023-03-29 01:56:00
Wind direction
260°
Wind speed
03 kts
Lowest cloud amount
few clouds
Temperature
7.8°C
Dew point
-1.7°C
Humidity
51%
Weather condition
n/a

Description

Caldwell Industrial Airport is a city-owned public-use airport located 3 nm southeast of the central business district of Caldwell, a city in Canyon County, Idaho, United States.

Airport map

Aerial View

SKYbrary Partners:

Safety knowledge contributed by: